Time;durP1;ratioP1;P1;durP2;ratioP2;P2;SDS_P1;SDS_P2;PMS_P1;PMS_P2;Temp;Humidity;BMP_temperature;BMP_pressure;BME280_temperature;BME280_humidity;BME280_pressure;Samples;Min_cycle;Max_cycle;Signal;HPM_P1;HPM_P2
2022/05/09 00:01:15;;;;;;;9.85;5.93;;;;;;;;;;5028555;28;20045;-64
2022/05/09 00:03:45;;;;;;;11.13;5.35;;;;;;;;;;5031750;28;20057;-64
2022/05/09 00:06:14;;;;;;;8.50;4.68;;;;;;;;;;5030273;28;20045;-64
2022/05/09 00:08:43;;;;;;;9.23;5.28;;;;;;;;;;5033733;28;20466;-64
2022/05/09 00:11:11;;;;;;;10.05;5.88;;;;;;;;;;5030457;28;20248;-64
2022/05/09 00:13:40;;;;;;;12.27;5.95;;;;;;;;;;5031019;28;20132;-64
2022/05/09 00:16:08;;;;;;;7.90;5.20;;;;;;;;;;5029234;28;20133;-64
2022/05/09 00:18:36;;;;;;;10.15;5.28;;;;;;;;;;5031032;28;20178;-65
2022/05/09 00:21:09;;;;;;;10.55;5.57;;;;;;;;;;5029927;28;20088;-65
2022/05/09 00:23:38;;;;;;;9.30;5.28;;;;;;;;;;5032023;28;20464;-65
2022/05/09 00:26:09;;;;;;;11.70;5.53;;;;;;;;;;5028678;28;20404;-64
2022/05/09 00:28:38;;;;;;;9.20;5.32;;;;;;;;;;5029962;28;20057;-65
2022/05/09 00:31:07;;;;;;;9.13;5.63;;;;;;;;;;5029294;28;20072;-64
2022/05/09 00:33:36;;;;;;;8.65;4.95;;;;;;;;;;5029572;28;20065;-64
2022/05/09 00:36:07;;;;;;;8.40;5.05;;;;;;;;;;5029166;28;20520;-65
2022/05/09 00:38:36;;;;;;;8.15;5.43;;;;;;;;;;5030327;28;20547;-65
2022/05/09 00:43:57;;;;;;;11.43;5.43;;;;;;;;;;5027653;28;20141;-64
2022/05/09 00:46:28;;;;;;;9.43;5.53;;;;;;;;;;5029313;28;20540;-64
2022/05/09 00:48:58;;;;;;;8.98;5.47;;;;;;;;;;5017280;28;20128;-64
2022/05/09 00:51:27;;;;;;;9.57;6.03;;;;;;;;;;5025995;28;20133;-64
2022/05/09 00:53:57;;;;;;;8.45;5.15;;;;;;;;;;5028063;28;20386;-64
2022/05/09 00:56:28;;;;;;;9.73;5.10;;;;;;;;;;5021616;28;20103;-64
2022/05/09 00:58:58;;;;;;;10.68;5.50;;;;;;;;;;5029050;28;20163;-64
2022/05/09 01:01:26;;;;;;;9.27;5.32;;;;;;;;;;5022263;28;20132;-65
2022/05/09 01:04:00;;;;;;;11.63;5.57;;;;;;;;;;5031761;28;20116;-64
2022/05/09 01:06:28;;;;;;;9.20;5.70;;;;;;;;;;5027423;28;20103;-64
2022/05/09 01:08:58;;;;;;;10.75;5.88;;;;;;;;;;5023614;28;20446;-65
2022/05/09 01:11:27;;;;;;;8.38;5.32;;;;;;;;;;5030670;28;20141;-64
2022/05/09 01:13:59;;;;;;;11.25;5.40;;;;;;;;;;5030383;28;20131;-64
2022/05/09 01:16:27;;;;;;;11.40;5.32;;;;;;;;;;5029931;28;20077;-64
2022/05/09 01:18:58;;;;;;;9.90;5.57;;;;;;;;;;5030959;28;20497;-65
2022/05/09 01:21:33;;;;;;;8.80;5.50;;;;;;;;;;5026993;28;20107;-64
2022/05/09 01:24:01;;;;;;;;;;;;;;;;;;5017605;28;20107;-65
2022/05/09 01:26:30;;;;;;;9.90;5.25;;;;;;;;;;5029827;28;19975;-64
2022/05/09 01:29:01;;;;;;;9.60;5.57;;;;;;;;;;5023494;28;20133;-65
2022/05/09 01:31:29;;;;;;;7.63;4.80;;;;;;;;;;5030037;28;20576;-65
2022/05/09 01:33:58;;;;;;;9.15;5.57;;;;;;;;;;5026426;28;20058;-65
2022/05/09 01:36:27;;;;;;;8.10;5.20;;;;;;;;;;5023084;28;20092;-64
2022/05/09 01:38:59;;;;;;;13.98;5.05;;;;;;;;;;5016466;28;20088;-65
2022/05/09 01:41:28;;;;;;;8.43;5.32;;;;;;;;;;5028986;28;20091;-65
2022/05/09 01:43:57;;;;;;;8.15;5.38;;;;;;;;;;5031217;28;20165;-64
2022/05/09 01:46:26;;;;;;;9.38;5.68;;;;;;;;;;5026289;28;20079;-65
2022/05/09 01:51:41;;;;;;;11.20;6.50;;;;;;;;;;5029208;28;20140;-64
2022/05/09 01:54:11;;;;;;;9.30;6.10;;;;;;;;;;5030771;28;20105;-64
2022/05/09 01:56:40;;;;;;;9.85;5.63;;;;;;;;;;5031283;28;20049;-65
2022/05/09 01:59:10;;;;;;;10.07;6.05;;;;;;;;;;5027479;28;20358;-65
2022/05/09 02:01:39;;;;;;;9.60;5.78;;;;;;;;;;5028285;28;20046;-65
2022/05/09 02:04:08;;;;;;;10.88;5.85;;;;;;;;;;5019972;28;20460;-65
2022/05/09 02:06:36;;;;;;;9.32;5.55;;;;;;;;;;5021554;28;20140;-65
2022/05/09 02:09:05;;;;;;;11.07;5.47;;;;;;;;;;5021005;28;20185;-65
2022/05/09 02:11:34;;;;;;;8.98;5.47;;;;;;;;;;5019405;28;20080;-64
2022/05/09 02:14:03;;;;;;;9.25;5.43;;;;;;;;;;5017632;28;20109;-64
2022/05/09 02:16:31;;;;;;;12.23;6.10;;;;;;;;;;5025730;28;20085;-64
2022/05/09 02:18:59;;;;;;;10.50;6.03;;;;;;;;;;5028228;28;20386;-64
2022/05/09 02:21:28;;;;;;;9.13;5.97;;;;;;;;;;5017204;28;20073;-64
2022/05/09 02:23:56;;;;;;;8.70;5.63;;;;;;;;;;5024475;28;20052;-64
2022/05/09 02:26:25;;;;;;;9.48;5.63;;;;;;;;;;5020877;28;20594;-65
2022/05/09 02:28:55;;;;;;;8.35;5.60;;;;;;;;;;5027072;28;20107;-64
2022/05/09 02:31:23;;;;;;;9.38;5.38;;;;;;;;;;5029109;28;20072;-64
2022/05/09 02:33:52;;;;;;;11.45;5.80;;;;;;;;;;5037432;28;20055;-65
2022/05/09 02:36:20;;;;;;;11.75;5.80;;;;;;;;;;5026075;28;20076;-65
2022/05/09 02:38:49;;;;;;;11.45;5.65;;;;;;;;;;5020057;28;20808;-64
2022/05/09 02:41:17;;;;;;;10.00;6.00;;;;;;;;;;5012340;28;20161;-65
2022/05/09 02:43:45;;;;;;;11.55;6.35;;;;;;;;;;5025097;28;20084;-64
2022/05/09 02:46:15;;;;;;;11.93;5.93;;;;;;;;;;5022733;28;20132;-64
2022/05/09 02:48:44;;;;;;;8.70;5.38;;;;;;;;;;5030257;28;20049;-64
2022/05/09 02:51:13;;;;;;;9.25;6.07;;;;;;;;;;5034920;28;20072;-64
2022/05/09 02:53:47;;;;;;;9.50;5.95;;;;;;;;;;5022177;28;20073;-64
2022/05/09 02:56:16;;;;;;;12.55;6.25;;;;;;;;;;5021034;28;20077;-64
2022/05/09 02:58:44;;;;;;;13.13;6.32;;;;;;;;;;5027825;28;20049;-64
2022/05/09 03:01:12;;;;;;;10.90;6.10;;;;;;;;;;5027421;28;20421;-64
2022/05/09 03:06:28;;;;;;;10.75;6.20;;;;;;;;;;5018010;28;20057;-64
2022/05/09 03:08:56;;;;;;;10.07;6.03;;;;;;;;;;5022563;28;20114;-64
2022/05/09 03:11:25;;;;;;;11.90;6.57;;;;;;;;;;5024521;28;20566;-64
2022/05/09 03:13:53;;;;;;;10.45;6.28;;;;;;;;;;5027200;28;20124;-64
2022/05/09 03:16:22;;;;;;;11.18;6.50;;;;;;;;;;5015302;28;20077;-64
2022/05/09 03:18:52;;;;;;;10.68;5.95;;;;;;;;;;5036442;28;20056;-64
2022/05/09 03:21:20;;;;;;;9.15;5.90;;;;;;;;;;5028247;28;20168;-64
2022/05/09 03:23:49;;;;;;;8.93;5.72;;;;;;;;;;5026785;28;20048;-65
2022/05/09 03:26:17;;;;;;;9.80;6.03;;;;;;;;;;5024850;28;20140;-64
2022/05/09 03:28:45;;;;;;;9.32;4.72;;;;;;;;;;5021101;28;20148;-64
2022/05/09 03:31:14;;;;;;;9.27;6.03;;;;;;;;;;5023497;28;20069;-64
2022/05/09 03:33:43;;;;;;;9.05;5.60;;;;;;;;;;5017929;28;20049;-64
2022/05/09 03:36:12;;;;;;;8.77;5.72;;;;;;;;;;5015960;28;20769;-64
2022/05/09 03:38:41;;;;;;;10.02;5.75;;;;;;;;;;5019172;28;20137;-66
2022/05/09 03:41:09;;;;;;;11.80;5.95;;;;;;;;;;5017916;28;20444;-65
2022/05/09 03:43:37;;;;;;;10.23;5.68;;;;;;;;;;5027238;28;20132;-64
2022/05/09 03:46:09;;;;;;;14.45;5.47;;;;;;;;;;5017941;28;20124;-64
2022/05/09 03:48:37;;;;;;;9.77;6.13;;;;;;;;;;5033019;28;20377;-64
2022/05/09 03:51:08;;;;;;;9.68;5.75;;;;;;;;;;5028598;28;20046;-64
2022/05/09 03:53:38;;;;;;;10.88;5.50;;;;;;;;;;5029552;28;20124;-64
2022/05/09 03:56:10;;;;;;;10.00;5.72;;;;;;;;;;5025975;28;20496;-64
2022/05/09 03:58:39;;;;;;;9.02;5.75;;;;;;;;;;5014684;28;20554;-65
2022/05/09 04:01:11;;;;;;;12.00;6.05;;;;;;;;;;5026037;28;20119;-64
2022/05/09 04:03:40;;;;;;;13.93;6.10;;;;;;;;;;5030352;28;20118;-64
2022/05/09 04:06:08;;;;;;;12.85;7.03;;;;;;;;;;5027243;28;20564;-64
2022/05/09 04:08:36;;;;;;;12.07;6.05;;;;;;;;;;5029355;28;20081;-65
2022/05/09 04:11:09;;;;;;;11.32;6.45;;;;;;;;;;5017801;28;20140;-64
2022/05/09 04:13:37;;;;;;;12.02;5.88;;;;;;;;;;5021309;28;20050;-64
2022/05/09 04:18:59;;;;;;;11.82;6.65;;;;;;;;;;5025098;28;20568;-64
2022/05/09 04:21:27;;;;;;;14.68;6.70;;;;;;;;;;5026419;28;20049;-64
2022/05/09 04:23:58;;;;;;;13.35;6.55;;;;;;;;;;5032876;28;20588;-64
2022/05/09 04:26:29;;;;;;;9.38;5.97;;;;;;;;;;5042701;28;20076;-64
2022/05/09 04:28:58;;;;;;;10.00;6.63;;;;;;;;;;5023275;28;20077;-64
2022/05/09 04:31:27;;;;;;;12.43;6.68;;;;;;;;;;5027146;28;20054;-64
2022/05/09 04:33:55;;;;;;;12.13;6.90;;;;;;;;;;5032535;28;20500;-64
2022/05/09 04:36:25;;;;;;;9.25;5.68;;;;;;;;;;5028295;28;20049;-64
2022/05/09 04:38:54;;;;;;;11.40;6.50;;;;;;;;;;5018362;28;20148;-64
2022/05/09 04:41:22;;;;;;;14.52;6.63;;;;;;;;;;5025732;28;20517;-64
2022/05/09 04:43:52;;;;;;;11.63;6.57;;;;;;;;;;5030019;28;20077;-65
2022/05/09 04:46:20;;;;;;;11.35;6.70;;;;;;;;;;5024936;28;20124;-64
2022/05/09 04:48:48;;;;;;;10.15;6.18;;;;;;;;;;5032884;28;20152;-65
2022/05/09 04:51:17;;;;;;;11.68;6.22;;;;;;;;;;5029251;28;20057;-64
2022/05/09 04:53:49;;;;;;;11.13;5.88;;;;;;;;;;5026279;28;20038;-65
2022/05/09 04:56:17;;;;;;;11.65;6.57;;;;;;;;;;5019754;28;20485;-64
2022/05/09 04:58:46;;;;;;;10.48;5.95;;;;;;;;;;5028308;28;20053;-64
2022/05/09 05:01:15;;;;;;;11.82;5.43;;;;;;;;;;5024694;28;20117;-64
2022/05/09 05:03:44;;;;;;;11.23;6.18;;;;;;;;;;5025868;28;20049;-64
2022/05/09 05:06:12;;;;;;;11.07;6.50;;;;;;;;;;5033130;28;20401;-64
2022/05/09 05:08:40;;;;;;;13.23;6.70;;;;;;;;;;5029587;28;20065;-64
2022/05/09 05:11:08;;;;;;;12.40;6.90;;;;;;;;;;5027073;28;20124;-64
2022/05/09 05:13:37;;;;;;;12.20;6.45;;;;;;;;;;5026576;28;20472;-64
2022/05/09 05:16:08;;;;;;;10.13;6.15;;;;;;;;;;5030591;28;20120;-64
2022/05/09 05:18:38;;;;;;;11.45;6.55;;;;;;;;;;5019176;28;20123;-65
2022/05/09 05:21:10;;;;;;;10.77;6.97;;;;;;;;;;5028289;28;20088;-64
2022/05/09 05:23:38;;;;;;;17.27;7.25;;;;;;;;;;5012956;28;20111;-65
2022/05/09 05:26:07;;;;;;;9.73;6.60;;;;;;;;;;5021765;28;20060;-64
2022/05/09 05:28:36;;;;;;;13.30;7.53;;;;;;;;;;5023249;28;20533;-65
2022/05/09 05:31:15;;;;;;;11.23;6.20;;;;;;;;;;5025636;28;20539;-65
2022/05/09 05:33:45;;;;;;;13.15;6.78;;;;;;;;;;5022604;28;20486;-64
2022/05/09 05:36:14;;;;;;;11.07;6.22;;;;;;;;;;5024308;28;20042;-65
2022/05/09 05:38:43;;;;;;;12.38;6.75;;;;;;;;;;5028583;28;20056;-65
2022/05/09 05:41:11;;;;;;;11.15;6.57;;;;;;;;;;5030729;28;20057;-65
2022/05/09 05:43:40;;;;;;;13.95;6.07;;;;;;;;;;5021911;28;20073;-65
2022/05/09 05:46:08;;;;;;;11.57;6.85;;;;;;;;;;5019189;28;20081;-64
2022/05/09 05:48:36;;;;;;;14.13;6.40;;;;;;;;;;5027184;28;20084;-65
2022/05/09 05:51:11;;;;;;;12.10;7.00;;;;;;;;;;5017689;28;20112;-67
2022/05/09 05:53:39;;;;;;;16.83;7.90;;;;;;;;;;5022496;28;20123;-67
2022/05/09 05:56:08;;;;;;;16.33;7.45;;;;;;;;;;5031978;28;20132;-66
2022/05/09 05:58:36;;;;;;;14.38;8.02;;;;;;;;;;5028507;28;20052;-65
2022/05/09 06:01:07;;;;;;;12.68;7.35;;;;;;;;;;5028876;28;20481;-66
2022/05/09 06:03:36;;;;;;;13.88;7.55;;;;;;;;;;5031352;28;20057;-66
2022/05/09 06:06:09;;;;;;;19.00;10.25;;;;;;;;;;5027511;28;20052;-65
2022/05/09 06:08:40;;;;;;;19.52;10.65;;;;;;;;;;5028293;28;20068;-65
2022/05/09 06:11:09;;;;;;;20.25;9.85;;;;;;;;;;5017623;28;20077;-65
2022/05/09 06:13:38;;;;;;;21.33;10.98;;;;;;;;;;5030775;28;20501;-66
2022/05/09 06:16:10;;;;;;;21.67;10.88;;;;;;;;;;5027351;28;20074;-65
2022/05/09 06:18:39;;;;;;;30.30;11.45;;;;;;;;;;5026499;28;20049;-66
2022/05/09 06:21:07;;;;;;;23.02;11.77;;;;;;;;;;5022567;28;20096;-65
2022/05/09 06:23:38;;;;;;;30.50;12.30;;;;;;;;;;5031235;28;20091;-66
2022/05/09 06:26:06;;;;;;;23.23;11.70;;;;;;;;;;5030578;28;20054;-65
2022/05/09 06:28:35;;;;;;;21.42;11.73;;;;;;;;;;5030339;28;20128;-66
2022/05/09 06:31:06;;;;;;;21.48;11.95;;;;;;;;;;5030865;28;20050;-67
2022/05/09 06:33:35;;;;;;;26.77;13.35;;;;;;;;;;5028353;28;20041;-66
2022/05/09 06:36:07;;;;;;;25.08;13.07;;;;;;;;;;5022314;28;20089;-65
2022/05/09 06:38:37;;;;;;;33.50;15.55;;;;;;;;;;5021720;28;20046;-68
2022/05/09 06:41:10;;;;;;;36.50;16.92;;;;;;;;;;5030328;28;20489;-65
2022/05/09 06:43:38;;;;;;;34.42;16.83;;;;;;;;;;5030554;28;20378;-65
2022/05/09 06:46:10;;;;;;;35.70;17.63;;;;;;;;;;5031527;28;20049;-67
2022/05/09 06:48:38;;;;;;;34.70;16.13;;;;;;;;;;5029811;28;20059;-66
2022/05/09 06:51:07;;;;;;;36.40;16.17;;;;;;;;;;5031352;28;20064;-66
2022/05/09 06:53:37;;;;;;;31.10;14.95;;;;;;;;;;5017743;28;20081;-66
2022/05/09 06:56:09;;;;;;;37.95;17.13;;;;;;;;;;5011574;28;20072;-66
2022/05/09 06:58:38;;;;;;;31.38;16.23;;;;;;;;;;5028986;28;20053;-66
2022/05/09 07:01:24;;;;;;;27.92;14.68;;;;;;;;;;5030818;28;20056;-66
2022/05/09 07:03:53;;;;;;;28.80;14.23;;;;;;;;;;5030590;28;20471;-66
2022/05/09 07:06:21;;;;;;;29.02;14.43;;;;;;;;;;5030728;28;20164;-66
2022/05/09 07:08:51;;;;;;;25.20;13.25;;;;;;;;;;5030194;28;20088;-66
2022/05/09 07:11:20;;;;;;;25.38;13.98;;;;;;;;;;5013966;28;20049;-67
2022/05/09 07:13:51;;;;;;;24.85;11.95;;;;;;;;;;5020378;28;20053;-67
2022/05/09 07:16:21;;;;;;;21.55;12.27;;;;;;;;;;5013092;28;20109;-66
2022/05/09 07:18:50;;;;;;;26.05;13.18;;;;;;;;;;5030070;28;20053;-66
2022/05/09 07:21:19;;;;;;;25.77;13.63;;;;;;;;;;5030864;28;20132;-66
2022/05/09 07:23:47;;;;;;;24.73;13.15;;;;;;;;;;5030807;28;20050;-67
2022/05/09 07:26:17;;;;;;;23.63;12.43;;;;;;;;;;5014299;28;20053;-67
2022/05/09 07:28:48;;;;;;;22.92;13.25;;;;;;;;;;5026016;28;20118;-66
2022/05/09 07:31:17;;;;;;;24.42;13.00;;;;;;;;;;5031039;28;20054;-67
2022/05/09 07:33:45;;;;;;;23.17;12.65;;;;;;;;;;5029154;28;20070;-66
2022/05/09 07:36:14;;;;;;;22.33;12.77;;;;;;;;;;5020216;28;20531;-66
2022/05/09 07:38:43;;;;;;;20.58;11.88;;;;;;;;;;5026510;28;20053;-66
2022/05/09 07:41:12;;;;;;;22.85;12.90;;;;;;;;;;5023316;28;20048;-66
2022/05/09 07:43:42;;;;;;;22.55;12.98;;;;;;;;;;5024267;28;20050;-66
2022/05/09 07:46:12;;;;;;;24.00;12.50;;;;;;;;;;5029774;28;20140;-66
2022/05/09 07:49:01;;;;;;;25.17;11.88;;;;;;;;;;5026387;28;20055;-66
2022/05/09 07:51:29;;;;;;;20.95;11.65;;;;;;;;;;5020956;28;20071;-65
2022/05/09 07:53:58;;;;;;;21.80;12.68;;;;;;;;;;5027368;28;20054;-66
2022/05/09 07:56:27;;;;;;;22.70;12.75;;;;;;;;;;5027236;28;20130;-66
2022/05/09 07:58:57;;;;;;;20.65;11.43;;;;;;;;;;5023404;28;20080;-65
2022/05/09 08:01:25;;;;;;;16.65;10.88;;;;;;;;;;5024862;28;20054;-66
2022/05/09 08:03:56;;;;;;;21.98;12.68;;;;;;;;;;5025041;28;20057;-66
2022/05/09 08:06:24;;;;;;;20.42;12.13;;;;;;;;;;5028866;28;20065;-67
2022/05/09 08:08:53;;;;;;;22.67;11.25;;;;;;;;;;5019623;28;20053;-67
2022/05/09 08:11:22;;;;;;;21.30;11.43;;;;;;;;;;5032791;28;20068;-68
2022/05/09 08:13:50;;;;;;;21.00;11.80;;;;;;;;;;5032593;28;20136;-68
2022/05/09 08:16:20;;;;;;;20.70;11.52;;;;;;;;;;5030975;28;20064;-67
2022/05/09 08:18:49;;;;;;;19.70;11.10;;;;;;;;;;5029220;28;20057;-67
2022/05/09 08:21:18;;;;;;;19.83;11.27;;;;;;;;;;5031136;28;20046;-68
2022/05/09 08:23:46;;;;;;;19.02;10.90;;;;;;;;;;5030613;28;20104;-64
2022/05/09 08:26:15;;;;;;;17.85;10.55;;;;;;;;;;5030553;28;20139;-65
2022/05/09 08:28:45;;;;;;;19.25;10.98;;;;;;;;;;5033244;28;20092;-65
2022/05/09 08:31:18;;;;;;;18.17;11.13;;;;;;;;;;5029207;28;20042;-65
2022/05/09 08:33:50;;;;;;;19.35;11.80;;;;;;;;;;5033181;28;20188;-65
2022/05/09 08:39:01;;;;;;;18.77;11.35;;;;;;;;;;5029900;28;20057;-67
2022/05/09 08:41:32;;;;;;;18.65;11.07;;;;;;;;;;5028181;28;20057;-67
2022/05/09 08:44:08;;;;;;;18.85;11.52;;;;;;;;;;5028931;28;20045;-67
2022/05/09 08:46:41;;;;;;;17.75;10.68;;;;;;;;;;5044099;28;20042;-66
2022/05/09 08:49:21;;;;;;;17.95;11.68;;;;;;;;;;5027863;28;20050;-65
2022/05/09 08:51:56;;;;;;;15.43;9.63;;;;;;;;;;5025712;28;20050;-67
2022/05/09 08:54:26;;;;;;;20.33;12.60;;;;;;;;;;5032398;28;20527;-67
2022/05/09 08:56:58;;;;;;;22.02;11.15;;;;;;;;;;5027556;28;20041;-65
2022/05/09 08:59:28;;;;;;;23.33;12.95;;;;;;;;;;5029368;28;20053;-66
2022/05/09 09:02:00;;;;;;;20.63;11.88;;;;;;;;;;5028747;28;20061;-67
2022/05/09 09:04:32;;;;;;;18.38;11.52;;;;;;;;;;5021325;28;20045;-66
2022/05/09 09:07:06;;;;;;;20.05;12.13;;;;;;;;;;5026164;28;20046;-68
2022/05/09 09:09:44;;;;;;;19.67;11.10;;;;;;;;;;5026681;28;20456;-66
2022/05/09 09:12:16;;;;;;;18.55;10.60;;;;;;;;;;5030232;28;20478;-66
2022/05/09 09:14:49;;;;;;;16.33;10.55;;;;;;;;;;5025440;28;20140;-67
2022/05/09 09:17:24;;;;;;;16.33;10.38;;;;;;;;;;5021057;28;20081;-66
2022/05/09 09:20:10;;;;;;;17.45;10.23;;;;;;;;;;5021930;28;20152;-66
2022/05/09 09:22:51;;;;;;;16.63;10.38;;;;;;;;;;5033390;28;20045;-69
2022/05/09 09:25:27;;;;;;;14.88;9.60;;;;;;;;;;5028478;28;20172;-66
2022/05/09 09:27:59;;;;;;;13.50;9.07;;;;;;;;;;5025196;28;20104;-66
2022/05/09 09:30:29;;;;;;;15.50;9.48;;;;;;;;;;5034289;28;20049;-66
2022/05/09 09:32:59;;;;;;;12.93;8.93;;;;;;;;;;5030181;28;20327;-66
2022/05/09 09:35:35;;;;;;;14.05;8.80;;;;;;;;;;5015234;28;20104;-66
2022/05/09 09:38:11;;;;;;;17.63;8.73;;;;;;;;;;5026631;28;20489;-67
2022/05/09 09:40:39;;;;;;;14.15;8.93;;;;;;;;;;5025068;28;20045;-68
2022/05/09 09:43:07;;;;;;;12.40;8.68;;;;;;;;;;5010678;28;20146;-68
2022/05/09 09:45:40;;;;;;;13.93;8.30;;;;;;;;;;5006039;28;20053;-67
2022/05/09 09:48:10;;;;;;;11.82;7.88;;;;;;;;;;5026289;28;20060;-67
2022/05/09 09:50:51;;;;;;;10.57;7.35;;;;;;;;;;5026578;28;20060;-67
2022/05/09 09:53:30;;;;;;;9.95;6.55;;;;;;;;;;5028434;28;20065;-67
2022/05/09 09:56:10;;;;;;;11.10;7.05;;;;;;;;;;5030448;28;20041;-67
2022/05/09 09:58:39;;;;;;;15.60;8.20;;;;;;;;;;5025899;28;20053;-69
2022/05/09 10:01:12;;;;;;;14.32;8.02;;;;;;;;;;5024506;28;20220;-67
2022/05/09 10:03:42;;;;;;;12.82;8.00;;;;;;;;;;5028586;28;20065;-67
2022/05/09 10:06:19;;;;;;;13.63;8.07;;;;;;;;;;5027377;28;20345;-68
2022/05/09 10:08:48;;;;;;;12.43;6.32;;;;;;;;;;5027468;28;20172;-67
2022/05/09 10:11:23;;;;;;;10.88;6.97;;;;;;;;;;5024684;28;20349;-68
2022/05/09 10:13:53;;;;;;;12.63;8.07;;;;;;;;;;5027607;28;20475;-68
2022/05/09 10:16:26;;;;;;;10.75;6.78;;;;;;;;;;5022358;28;20046;-67
2022/05/09 10:18:55;;;;;;;10.93;7.03;;;;;;;;;;5036367;28;20061;-67
2022/05/09 10:27:11;;;;;;;13.13;6.15;;;;;;;;;;5022861;28;20053;-67
2022/05/09 10:29:40;;;;;;;8.93;5.82;;;;;;;;;;5008078;28;20108;-67
2022/05/09 10:32:12;;;;;;;9.40;5.57;;;;;;;;;;5015260;28;20053;-67
2022/05/09 10:34:44;;;;;;;9.68;4.90;;;;;;;;;;5013278;28;20545;-67
2022/05/09 10:37:20;;;;;;;7.90;5.65;;;;;;;;;;5008215;28;20169;-69
2022/05/09 10:39:51;;;;;;;10.35;5.65;;;;;;;;;;4987165;28;20057;-69
2022/05/09 10:42:24;;;;;;;7.45;4.90;;;;;;;;;;5016066;28;20508;-68
2022/05/09 10:44:54;;;;;;;6.90;5.15;;;;;;;;;;5028293;28;20485;-69
2022/05/09 10:47:27;;;;;;;7.20;5.00;;;;;;;;;;5025010;28;20061;-69
2022/05/09 10:50:00;;;;;;;6.20;4.72;;;;;;;;;;5021969;28;20081;-65
2022/05/09 10:52:35;;;;;;;6.75;5.05;;;;;;;;;;5021810;28;20474;-66
2022/05/09 10:55:05;;;;;;;7.65;5.63;;;;;;;;;;5023359;28;20160;-67
2022/05/09 10:57:38;;;;;;;8.73;6.07;;;;;;;;;;5024700;28;20080;-68
2022/05/09 11:00:21;;;;;;;7.05;5.00;;;;;;;;;;5028234;28;20533;-69
2022/05/09 11:02:55;;;;;;;9.70;6.82;;;;;;;;;;5022952;28;20517;-68
2022/05/09 11:05:24;;;;;;;10.73;6.38;;;;;;;;;;5024016;28;20052;-68
2022/05/09 11:08:01;;;;;;;9.05;6.32;;;;;;;;;;5022995;28;20067;-68
2022/05/09 11:10:37;;;;;;;11.48;6.47;;;;;;;;;;5027193;28;20057;-68
2022/05/09 11:13:15;;;;;;;9.73;6.47;;;;;;;;;;5026409;28;20042;-68
2022/05/09 11:15:49;;;;;;;8.27;5.80;;;;;;;;;;5022992;28;20053;-68
2022/05/09 11:18:33;;;;;;;9.13;6.03;;;;;;;;;;5025869;28;20462;-68
2022/05/09 11:21:08;;;;;;;9.10;6.32;;;;;;;;;;4990932;28;20045;-69
2022/05/09 11:23:44;;;;;;;9.32;5.72;;;;;;;;;;5023438;28;20063;-68
2022/05/09 11:26:19;;;;;;;7.38;6.20;;;;;;;;;;5020701;28;20064;-67
2022/05/09 11:29:07;;;;;;;8.77;6.68;;;;;;;;;;5020508;28;20051;-68
2022/05/09 11:31:43;;;;;;;7.72;5.95;;;;;;;;;;5023268;28;20359;-67
2022/05/09 11:34:19;;;;;;;7.63;5.30;;;;;;;;;;5026648;28;20049;-68
2022/05/09 11:36:59;;;;;;;9.43;5.07;;;;;;;;;;5023795;28;20054;-68
2022/05/09 11:39:34;;;;;;;7.45;4.97;;;;;;;;;;5021013;28;20049;-70
2022/05/09 11:43:27;;;;;;;;;;;;;;;;;;5010066;28;20156;-67
2022/05/09 11:44:58;;;;;;;8.75;5.00;;;;;;;;;;5021075;28;19925;-68
2022/05/09 11:47:34;;;;;;;7.50;5.53;;;;;;;;;;5012209;28;20054;-67
2022/05/09 11:50:15;;;;;;;7.57;5.25;;;;;;;;;;5028969;28;20056;-68
2022/05/09 11:52:45;;;;;;;8.70;5.35;;;;;;;;;;5018821;28;20046;-68
2022/05/09 11:55:18;;;;;;;6.80;5.05;;;;;;;;;;5023325;28;20050;-68
2022/05/09 11:57:49;;;;;;;6.47;4.75;;;;;;;;;;5019917;28;20104;-67
2022/05/09 12:00:37;;;;;;;8.40;4.78;;;;;;;;;;5018896;28;20123;-68
2022/05/09 12:03:07;;;;;;;10.73;6.13;;;;;;;;;;5022584;28;20099;-67
2022/05/09 12:06:00;;;;;;;8.05;5.35;;;;;;;;;;5021249;28;20485;-67
2022/05/09 12:08:44;;;;;;;7.35;4.68;;;;;;;;;;5022377;28;20050;-68
2022/05/09 12:11:34;;;;;;;6.82;4.70;;;;;;;;;;5013422;28;20523;-68
2022/05/09 12:14:04;;;;;;;5.90;4.50;;;;;;;;;;5027048;28;20055;-68
2022/05/09 12:16:45;;;;;;;7.72;4.80;;;;;;;;;;5016351;28;20862;-67
2022/05/09 12:19:14;;;;;;;5.82;4.38;;;;;;;;;;5014300;28;20045;-68
2022/05/09 12:21:43;;;;;;;5.90;4.47;;;;;;;;;;5020679;28;20536;-68
2022/05/09 12:24:25;;;;;;;6.22;4.60;;;;;;;;;;5017949;28;20119;-67
2022/05/09 12:26:56;;;;;;;6.78;4.78;;;;;;;;;;5026636;28;20475;-67
2022/05/09 12:29:52;;;;;;;7.10;4.60;;;;;;;;;;5026410;28;20196;-67
2022/05/09 12:32:21;;;;;;;8.07;4.80;;;;;;;;;;5020190;28;20065;-68
2022/05/09 12:34:50;;;;;;;6.15;4.28;;;;;;;;;;5024216;28;20058;-67
2022/05/09 12:37:46;;;;;;;4.80;3.80;;;;;;;;;;5025193;28;20044;-67
2022/05/09 12:40:22;;;;;;;6.90;4.28;;;;;;;;;;5026223;28;20041;-67
2022/05/09 12:42:54;;;;;;;7.25;4.63;;;;;;;;;;5027774;28;20045;-67
2022/05/09 12:45:22;;;;;;;5.80;4.20;;;;;;;;;;5025319;28;20077;-67
2022/05/09 12:47:51;;;;;;;5.78;4.32;;;;;;;;;;5015671;28;20444;-67
2022/05/09 12:50:26;;;;;;;6.00;3.88;;;;;;;;;;5019731;28;20045;-67
2022/05/09 12:52:57;;;;;;;5.75;4.13;;;;;;;;;;5020139;28;20107;-68
2022/05/09 12:58:24;;;;;;;6.03;4.25;;;;;;;;;;5023937;28;20046;-67
2022/05/09 13:00:57;;;;;;;5.22;4.13;;;;;;;;;;5021348;28;20042;-67
2022/05/09 13:03:47;;;;;;;9.43;4.50;;;;;;;;;;5022308;28;20493;-67
2022/05/09 13:06:17;;;;;;;6.85;3.72;;;;;;;;;;5028834;28;20083;-67
2022/05/09 13:08:45;;;;;;;4.85;3.97;;;;;;;;;;5022637;28;20037;-67
2022/05/09 13:11:15;;;;;;;4.55;3.55;;;;;;;;;;5025248;28;20400;-67
2022/05/09 13:13:54;;;;;;;5.55;3.75;;;;;;;;;;5028051;28;20081;-67
2022/05/09 13:16:24;;;;;;;6.72;3.70;;;;;;;;;;5020470;28;20065;-68
2022/05/09 13:18:55;;;;;;;5.57;3.45;;;;;;;;;;5023276;28;20496;-68
2022/05/09 13:21:27;;;;;;;7.22;3.75;;;;;;;;;;5024543;28;20557;-67
2022/05/09 13:23:56;;;;;;;4.78;3.30;;;;;;;;;;5027463;28;20048;-66
2022/05/09 13:26:28;;;;;;;5.40;4.05;;;;;;;;;;5021995;28;20466;-66
2022/05/09 13:28:58;;;;;;;3.63;3.20;;;;;;;;;;5020895;28;20053;-69
2022/05/09 13:31:29;;;;;;;4.55;3.30;;;;;;;;;;5017974;28;20054;-65
2022/05/09 13:33:58;;;;;;;6.05;3.58;;;;;;;;;;5019589;28;20041;-66
2022/05/09 13:36:36;;;;;;;4.25;3.28;;;;;;;;;;5024095;28;20054;-65
2022/05/09 13:39:05;;;;;;;3.75;3.13;;;;;;;;;;5021753;28;20148;-66
2022/05/09 13:41:35;;;;;;;4.03;3.38;;;;;;;;;;5020816;28;20342;-66
2022/05/09 13:44:06;;;;;;;3.90;3.10;;;;;;;;;;5026209;28;20504;-67
2022/05/09 13:46:36;;;;;;;5.70;4.20;;;;;;;;;;5028669;28;20055;-66
2022/05/09 13:49:06;;;;;;;5.35;3.45;;;;;;;;;;5024388;28;20049;-67
2022/05/09 13:51:35;;;;;;;5.40;3.40;;;;;;;;;;5020578;28;20115;-68
2022/05/09 13:54:06;;;;;;;5.68;3.55;;;;;;;;;;5016433;28;20084;-67
2022/05/09 13:56:35;;;;;;;5.07;3.78;;;;;;;;;;5015843;28;20049;-67
2022/05/09 13:59:25;;;;;;;4.88;3.25;;;;;;;;;;5020235;28;20076;-66
2022/05/09 14:01:56;;;;;;;5.75;3.47;;;;;;;;;;5020849;28;20085;-67
2022/05/09 14:04:24;;;;;;;7.30;3.40;;;;;;;;;;5012759;28;20050;-67
2022/05/09 14:06:53;;;;;;;4.43;3.38;;;;;;;;;;5022362;28;20116;-66
2022/05/09 14:09:23;;;;;;;3.50;3.20;;;;;;;;;;5018371;28;20482;-66
2022/05/09 14:11:55;;;;;;;4.47;3.47;;;;;;;;;;5021271;28;20053;-67
2022/05/09 14:14:36;;;;;;;3.85;3.20;;;;;;;;;;5016665;28;20096;-66
2022/05/09 14:17:08;;;;;;;5.03;3.30;;;;;;;;;;5025305;28;20555;-66
2022/05/09 14:19:36;;;;;;;3.75;3.05;;;;;;;;;;5023739;28;20095;-66
2022/05/09 14:22:06;;;;;;;3.55;3.25;;;;;;;;;;5010098;28;20045;-66
2022/05/09 14:24:35;;;;;;;7.05;3.17;;;;;;;;;;5022047;28;21294;-67
2022/05/09 14:29:55;;;;;;;4.05;3.13;;;;;;;;;;4994146;28;20468;-66
2022/05/09 14:32:40;;;;;;;5.13;3.38;;;;;;;;;;5014825;28;20502;-67
2022/05/09 14:35:09;;;;;;;4.03;3.10;;;;;;;;;;5026321;28;20486;-68
2022/05/09 14:37:49;;;;;;;4.07;3.05;;;;;;;;;;5010824;28;20053;-66
2022/05/09 14:40:22;;;;;;;4.80;3.00;;;;;;;;;;5024933;28;20049;-67
2022/05/09 14:42:52;;;;;;;4.85;3.50;;;;;;;;;;5022921;28;20046;-67
2022/05/09 14:45:24;;;;;;;5.97;3.17;;;;;;;;;;5037391;28;20058;-67
2022/05/09 14:47:56;;;;;;;5.00;3.05;;;;;;;;;;5014390;28;20042;-66
2022/05/09 14:50:26;;;;;;;4.03;3.45;;;;;;;;;;5028139;28;20049;-66
2022/05/09 14:53:03;;;;;;;4.25;3.15;;;;;;;;;;5013717;28;20532;-67
2022/05/09 14:58:34;;;;;;;4.18;3.55;;;;;;;;;;5024654;28;20068;-67
2022/05/09 15:01:09;;;;;;;5.63;3.38;;;;;;;;;;5027835;28;20103;-66
2022/05/09 15:03:39;;;;;;;4.60;3.60;;;;;;;;;;5025747;28;20057;-67
2022/05/09 15:06:11;;;;;;;6.50;3.30;;;;;;;;;;5021153;28;20084;-66
2022/05/09 15:08:39;;;;;;;5.38;3.67;;;;;;;;;;5023324;28;20058;-67
2022/05/09 15:11:13;;;;;;;3.55;3.25;;;;;;;;;;5014381;28;20045;-67
2022/05/09 15:13:41;;;;;;;4.45;3.38;;;;;;;;;;5016602;28;20493;-67
2022/05/09 15:16:14;;;;;;;5.70;3.80;;;;;;;;;;5027562;28;20041;-67
2022/05/09 15:18:43;;;;;;;5.55;3.83;;;;;;;;;;5026715;28;20053;-67
2022/05/09 15:21:11;;;;;;;4.38;3.40;;;;;;;;;;5026208;28;20046;-67
2022/05/09 15:23:40;;;;;;;4.78;3.55;;;;;;;;;;5020195;28;20143;-67
2022/05/09 15:26:09;;;;;;;5.25;3.53;;;;;;;;;;5017057;28;20050;-67